Time;durP1;ratioP1;P1;durP2;ratioP2;P2;SDS_P1;SDS_P2;PMS_P1;PMS_P2;Temp;Humidity;BMP_temperature;BMP_pressure;BME280_temperature;BME280_humidity;BME280_pressure;Samples;Min_cycle;Max_cycle;Signal;HPM_P1;HPM_P2
2021/09/28 00:00:07;;;;;;;14.67;13.07;;;19.40;1.00;;;;;;5112512;28;20416;-54
2021/09/28 00:02:33;;;;;;;15.60;14.00;;;19.40;1.00;;;;;;5105017;28;20229;-54
2021/09/28 00:04:59;;;;;;;16.13;14.47;;;19.60;1.00;;;;;;5103993;28;20487;-54
2021/09/28 00:07:24;;;;;;;14.13;12.80;;;19.60;1.00;;;;;;5113204;28;20305;-54
2021/09/28 00:09:50;;;;;;;14.50;12.90;;;19.50;1.00;;;;;;5110939;28;20191;-54
2021/09/28 00:12:15;;;;;;;15.27;13.50;;;19.50;1.00;;;;;;5113811;28;20182;-54
2021/09/28 00:14:42;;;;;;;14.20;12.80;;;19.50;1.00;;;;;;5111574;28;20274;-56
2021/09/28 00:17:08;;;;;;;14.40;12.90;;;19.40;1.00;;;;;;5114476;28;20266;-54
2021/09/28 00:19:33;;;;;;;15.80;13.40;;;19.30;1.00;;;;;;5113145;28;20936;-55
2021/09/28 00:21:59;;;;;;;16.30;14.37;;;19.30;1.00;;;;;;5107591;28;20443;-56
2021/09/28 00:24:24;;;;;;;14.30;12.90;;;19.20;1.00;;;;;;5114618;28;20193;-54
2021/09/28 00:26:50;;;;;;;15.90;13.50;;;19.10;1.00;;;;;;5114068;28;20704;-55
2021/09/28 00:29:15;;;;;;;18.30;14.30;;;19.10;1.00;;;;;;5113971;28;20191;-54
2021/09/28 00:31:41;;;;;;;16.00;14.23;;;19.10;1.00;;;;;;5112487;28;20205;-54
2021/09/28 00:34:06;;;;;;;15.77;14.10;;;19.00;1.00;;;;;;5112172;28;20639;-56
2021/09/28 00:36:32;;;;;;;16.00;14.33;;;18.90;1.00;;;;;;5114038;28;20194;-54
2021/09/28 00:38:57;;;;;;;13.80;12.40;;;18.90;1.00;;;;;;5111333;28;20186;-54
2021/09/28 00:41:23;;;;;;;16.27;14.50;;;18.80;1.00;;;;;;5113825;28;20219;-54
2021/09/28 00:43:53;;;;;;;17.60;15.90;;;18.80;1.00;;;;;;5110464;28;20658;-55
2021/09/28 00:46:18;;;;;;;15.93;13.63;;;18.90;1.00;;;;;;5110566;28;20214;-55
2021/09/28 00:48:44;;;;;;;17.50;14.33;;;18.80;1.00;;;;;;5113827;28;20418;-55
2021/09/28 00:51:11;;;;;;;15.33;13.70;;;18.80;1.00;;;;;;5112792;28;20293;-56
2021/09/28 00:53:39;;;;;;;15.30;13.70;;;18.90;1.00;;;;;;5111820;28;20446;-55
2021/09/28 00:56:10;;;;;;;16.20;14.50;;;18.90;1.00;;;;;;5110378;28;20881;-55
2021/09/28 00:58:38;;;;;;;15.93;14.20;;;18.90;1.00;;;;;;5110122;28;20404;-55
2021/09/28 01:01:05;;;;;;;16.33;14.60;;;18.90;1.00;;;;;;5111836;28;20495;-54
2021/09/28 01:03:32;;;;;;;16.87;14.30;;;19.00;1.00;;;;;;5113270;28;20414;-55
2021/09/28 01:05:58;;;;;;;15.60;13.93;;;19.00;1.00;;;;;;5112801;28;20444;-56
2021/09/28 01:08:24;;;;;;;15.60;14.00;;;19.00;1.00;;;;;;5113304;28;20417;-54
2021/09/28 01:10:50;;;;;;;21.37;14.13;;;19.00;1.00;;;;;;5108377;28;20406;-54
2021/09/28 01:13:16;;;;;;;16.77;14.97;;;19.10;1.00;;;;;;5113293;28;20428;-56
2021/09/28 01:15:59;;;;;;;17.10;13.77;;;19.00;1.00;;;;;;5109589;28;20772;-55
2021/09/28 01:18:26;;;;;;;14.63;13.13;;;19.00;1.00;;;;;;5110573;28;20581;-55
2021/09/28 01:20:52;;;;;;;15.53;13.70;;;19.00;1.00;;;;;;5109479;28;20414;-54
2021/09/28 01:23:17;;;;;;;15.67;14.07;;;18.90;1.00;;;;;;5109221;28;20414;-56
2021/09/28 01:25:43;;;;;;;15.57;13.90;;;18.90;1.00;;;;;;5123215;27;20951;-54
2021/09/28 01:28:08;;;;;;;16.73;14.27;;;18.90;1.00;;;;;;5112577;28;20506;-54
2021/09/28 01:30:34;;;;;;;15.77;14.27;;;18.90;1.00;;;;;;5112887;28;20235;-54
2021/09/28 01:33:00;;;;;;;16.20;13.37;;;18.90;1.00;;;;;;5112168;28;20182;-54
2021/09/28 01:35:26;;;;;;;18.30;16.50;;;18.90;1.00;;;;;;5112474;28;20259;-55
2021/09/28 01:37:52;;;;;;;17.20;14.23;;;18.80;1.00;;;;;;5109600;28;20431;-56
2021/09/28 01:40:17;;;;;;;17.70;15.07;;;18.80;1.00;;;;;;5112764;28;20190;-54
2021/09/28 01:42:43;;;;;;;15.60;13.97;;;18.80;1.00;;;;;;5096136;28;20205;-55
2021/09/28 01:45:08;;;;;;;15.13;13.40;;;18.80;1.00;;;;;;5095194;28;20189;-55
2021/09/28 01:47:34;;;;;;;16.20;14.50;;;18.80;1.00;;;;;;5107377;28;20293;-54
2021/09/28 01:50:00;;;;;;;15.60;14.10;;;18.90;1.00;;;;;;5112393;28;20220;-55
2021/09/28 01:52:25;;;;;;;17.17;15.37;;;18.90;1.00;;;;;;5111625;28;20201;-55
2021/09/28 01:54:51;;;;;;;15.63;14.03;;;18.90;1.00;;;;;;5112272;28;20631;-55
2021/09/28 01:57:16;;;;;;;15.43;13.87;;;18.90;1.00;;;;;;5107979;28;20225;-53
2021/09/28 01:59:42;;;;;;;15.00;13.50;;;19.00;1.00;;;;;;5109117;28;20222;-54
2021/09/28 02:02:07;;;;;;;16.13;14.53;;;18.90;1.00;;;;;;5111287;28;20183;-54
2021/09/28 02:04:33;;;;;;;14.80;13.40;;;18.90;1.00;;;;;;5110419;28;20205;-53
2021/09/28 02:06:58;;;;;;;16.17;14.17;;;18.90;1.00;;;;;;5109284;28;20213;-54
2021/09/28 02:09:24;;;;;;;15.93;14.33;;;18.90;1.00;;;;;;5107201;28;20272;-55
2021/09/28 02:11:49;;;;;;;15.17;13.57;;;18.90;1.00;;;;;;5111665;28;20243;-54
2021/09/28 02:14:15;;;;;;;16.20;14.27;;;18.80;1.00;;;;;;5109808;28;20194;-55
2021/09/28 02:16:44;;;;;;;19.20;14.70;;;18.80;1.00;;;;;;5111629;28;20547;-56
2021/09/28 02:19:13;;;;;;;13.60;12.10;;;18.90;1.00;;;;;;5111166;28;20602;-54
2021/09/28 02:21:39;;;;;;;15.07;13.50;;;18.80;1.00;;;;;;5104996;28;20433;-54
2021/09/28 02:24:05;;;;;;;15.43;13.93;;;18.70;1.00;;;;;;5105023;28;20461;-55
2021/09/28 02:26:31;;;;;;;14.97;13.47;;;18.80;1.00;;;;;;5111270;28;20207;-54
2021/09/28 02:28:56;;;;;;;13.67;12.37;;;18.70;1.00;;;;;;5108038;28;20798;-55
2021/09/28 02:31:22;;;;;;;15.00;13.53;;;18.70;1.00;;;;;;5111457;27;20178;-54
2021/09/28 02:33:48;;;;;;;15.43;13.83;;;18.70;1.00;;;;;;5110713;28;20194;-55
2021/09/28 02:36:13;;;;;;;16.60;14.90;;;18.70;1.00;;;;;;5110675;28;20407;-55
2021/09/28 02:38:39;;;;;;;14.57;13.03;;;18.50;1.00;;;;;;5108292;28;20187;-56
2021/09/28 02:41:05;;;;;;;15.30;13.70;;;18.50;1.00;;;;;;5105791;28;20189;-55
2021/09/28 02:43:30;;;;;;;15.93;14.37;;;18.50;1.00;;;;;;5111610;28;20536;-55
2021/09/28 02:45:56;;;;;;;14.90;13.50;;;18.50;1.00;;;;;;5110771;28;20532;-54
2021/09/28 02:48:21;;;;;;;14.13;12.70;;;18.50;1.00;;;;;;5106990;28;20209;-55
2021/09/28 02:50:47;;;;;;;14.50;13.03;;;18.50;1.00;;;;;;5110312;28;20222;-54
2021/09/28 02:53:13;;;;;;;15.83;14.23;;;18.40;1.00;;;;;;5111433;28;20181;-55
2021/09/28 02:55:40;;;;;;;15.90;13.47;;;18.40;1.00;;;;;;5108955;28;20239;-55
2021/09/28 02:58:05;;;;;;;14.27;12.97;;;18.30;1.00;;;;;;5105576;28;20524;-54
2021/09/28 03:00:31;;;;;;;15.90;14.27;;;18.30;1.00;;;;;;5110347;28;20469;-55
2021/09/28 03:02:57;;;;;;;16.10;13.20;;;18.30;1.00;;;;;;5110078;28;20535;-55
2021/09/28 03:05:23;;;;;;;14.60;13.20;;;18.30;1.00;;;;;;5111698;28;20472;-54
2021/09/28 03:07:48;;;;;;;15.47;13.97;;;18.20;1.00;;;;;;5110898;28;20273;-55
2021/09/28 03:10:14;;;;;;;16.23;13.43;;;18.20;1.00;;;;;;5111056;28;20180;-55
2021/09/28 03:12:39;;;;;;;16.27;13.70;;;18.20;1.00;;;;;;5109431;28;20185;-55
2021/09/28 03:15:06;;;;;;;14.90;13.40;;;18.20;1.00;;;;;;5111117;28;20181;-54
2021/09/28 03:17:31;;;;;;;14.37;12.87;;;18.20;1.50;;;;;;5110387;28;20665;-54
2021/09/28 03:19:57;;;;;;;16.33;14.63;;;18.20;2.60;;;;;;5114357;28;20440;-54
2021/09/28 03:22:22;;;;;;;16.00;14.30;;;18.20;2.10;;;;;;5110479;27;20179;-54
2021/09/28 03:24:48;;;;;;;16.17;13.77;;;18.20;2.20;;;;;;5114707;28;20194;-53
2021/09/28 03:27:14;;;;;;;17.20;15.40;;;18.00;8.00;;;;;;5113476;28;20205;-54
2021/09/28 03:29:39;;;;;;;15.90;14.20;;;18.00;12.40;;;;;;5114238;28;20550;-54
2021/09/28 03:32:05;;;;;;;18.80;14.80;;;17.90;20.20;;;;;;5113024;28;20192;-56
2021/09/28 03:34:31;;;;;;;15.40;13.87;;;17.90;28.50;;;;;;5112092;28;20266;-56
2021/09/28 03:36:56;;;;;;;16.50;13.73;;;17.90;48.00;;;;;;5114025;28;21029;-54
2021/09/28 03:39:22;;;;;;;18.13;15.50;;;17.80;53.40;;;;;;5110272;28;20271;-54
2021/09/28 03:41:48;;;;;;;16.23;13.77;;;17.80;56.30;;;;;;5113343;28;20187;-54
2021/09/28 03:44:14;;;;;;;15.97;13.27;;;17.80;59.10;;;;;;5113374;28;20177;-55
2021/09/28 03:46:39;;;;;;;17.10;14.27;;;17.80;69.50;;;;;;5112325;28;21104;-54
2021/09/28 03:49:05;;;;;;;15.97;14.37;;;17.70;62.40;;;;;;5111639;28;20262;-54
2021/09/28 03:51:31;;;;;;;16.90;15.10;;;17.70;73.90;;;;;;5112071;28;20418;-54
2021/09/28 03:53:56;;;;;;;16.67;14.00;;;17.70;86.90;;;;;;5115073;28;20179;-55
2021/09/28 03:56:22;;;;;;;15.07;13.47;;;17.70;86.60;;;;;;5108665;28;20623;-55
2021/09/28 03:58:48;;;;;;;14.83;13.37;;;17.70;91.30;;;;;;5111733;28;20186;-54
2021/09/28 04:01:13;;;;;;;15.77;13.37;;;17.60;93.40;;;;;;5113904;28;20188;-54
2021/09/28 04:03:42;;;;;;;17.37;15.53;;;17.60;99.90;;;;;;5112837;28;20225;-56
2021/09/28 04:06:09;;;;;;;19.20;15.17;;;17.60;99.90;;;;;;5114846;28;20197;-54
2021/09/28 04:08:34;;;;;;;15.90;14.30;;;17.60;99.90;;;;;;5112159;27;20491;-55
2021/09/28 04:11:00;;;;;;;14.83;13.37;;;17.60;99.90;;;;;;5113552;27;20426;-54
2021/09/28 04:13:26;;;;;;;15.70;14.10;;;17.50;99.90;;;;;;5110971;28;20521;-55
2021/09/28 04:15:52;;;;;;;16.97;14.70;;;17.50;99.90;;;;;;5114816;28;20238;-54
2021/09/28 04:18:18;;;;;;;17.13;14.43;;;17.60;99.90;;;;;;5113077;28;20200;-55
2021/09/28 04:20:45;;;;;;;17.53;14.70;;;17.50;99.90;;;;;;5112054;27;20435;-57
2021/09/28 04:23:13;;;;;;;16.93;14.53;;;17.50;99.90;;;;;;5109309;28;20421;-57
2021/09/28 04:25:40;;;;;;;15.70;13.80;;;17.40;99.90;;;;;;5113478;28;20420;-55
2021/09/28 04:28:07;;;;;;;16.33;13.60;;;17.50;99.90;;;;;;5111147;28;20516;-55
2021/09/28 04:30:32;;;;;;;18.30;13.33;;;17.50;99.90;;;;;;5112730;28;20892;-56
2021/09/28 04:32:58;;;;;;;16.57;14.87;;;17.50;99.90;;;;;;5113516;28;20478;-55
2021/09/28 04:35:23;;;;;;;14.10;12.70;;;17.50;99.90;;;;;;5113115;28;20187;-55
2021/09/28 04:37:49;;;;;;;15.70;14.03;;;17.50;99.90;;;;;;5108835;28;20320;-57
2021/09/28 04:40:15;;;;;;;16.83;14.87;;;17.40;99.90;;;;;;5112695;28;20204;-54
2021/09/28 04:42:41;;;;;;;15.57;14.07;;;17.50;99.90;;;;;;5111116;28;20192;-55
2021/09/28 04:45:08;;;;;;;14.43;13.03;;;17.60;99.90;;;;;;5113429;28;20208;-56
2021/09/28 04:47:33;;;;;;;14.53;13.10;;;17.60;99.90;;;;;;5094657;28;20519;-56
2021/09/28 04:49:59;;;;;;;16.23;14.53;;;17.70;99.90;;;;;;5113001;28;21070;-56
2021/09/28 04:52:25;;;;;;;15.90;14.30;;;17.60;99.90;;;;;;5109351;28;20200;-54
2021/09/28 04:54:50;;;;;;;16.87;14.40;;;17.60;99.90;;;;;;5113050;28;20243;-55
2021/09/28 04:57:16;;;;;;;15.37;13.80;;;17.60;99.90;;;;;;5112629;28;20526;-59
2021/09/28 04:59:42;;;;;;;16.53;13.93;;;17.70;99.90;;;;;;5112466;28;20449;-55
2021/09/28 05:02:08;;;;;;;16.90;15.17;;;17.70;99.90;;;;;;5110721;28;20410;-53
2021/09/28 05:04:34;;;;;;;15.97;14.37;;;17.60;99.90;;;;;;5106313;28;20209;-54
2021/09/28 05:06:59;;;;;;;19.10;15.70;;;17.70;99.90;;;;;;5107656;28;20232;-55
2021/09/28 05:09:25;;;;;;;15.97;14.00;;;17.70;99.90;;;;;;5109898;28;20280;-55
2021/09/28 05:11:50;;;;;;;21.03;14.60;;;17.80;99.90;;;;;;5102772;28;20186;-54
2021/09/28 05:14:16;;;;;;;17.40;14.87;;;17.80;99.90;;;;;;5102625;28;20195;-53
2021/09/28 05:16:41;;;;;;;16.33;14.63;;;18.00;99.70;;;;;;5097625;28;20182;-54
2021/09/28 05:19:07;;;;;;;16.53;14.70;;;18.10;93.90;;;;;;5109471;28;20281;-54
2021/09/28 05:21:33;;;;;;;19.53;16.07;;;18.10;92.60;;;;;;5106621;28;20619;-54
2021/09/28 05:23:59;;;;;;;16.57;14.80;;;18.10;90.80;;;;;;5107341;28;20776;-55
2021/09/28 05:26:25;;;;;;;15.93;13.80;;;18.00;88.00;;;;;;5109039;28;20414;-54
2021/09/28 05:28:51;;;;;;;16.90;14.23;;;18.10;90.80;;;;;;5105803;28;20170;-54
2021/09/28 05:31:17;;;;;;;16.00;14.33;;;18.10;89.40;;;;;;5110277;28;20544;-54
2021/09/28 05:33:43;;;;;;;17.57;15.73;;;18.00;90.70;;;;;;5109399;27;20446;-55
2021/09/28 05:36:08;;;;;;;15.57;14.07;;;18.00;90.70;;;;;;5112290;28;20170;-56
2021/09/28 05:38:34;;;;;;;21.53;14.70;;;18.00;91.20;;;;;;5107619;28;20778;-55
2021/09/28 05:41:04;;;;;;;20.33;16.97;;;18.10;82.90;;;;;;5110092;28;20203;-54
2021/09/28 05:43:30;;;;;;;18.20;14.37;;;18.10;68.40;;;;;;5111495;28;20196;-54
2021/09/28 05:45:58;;;;;;;19.10;17.20;;;18.20;71.80;;;;;;5111185;28;20435;-55
2021/09/28 05:48:24;;;;;;;18.33;16.43;;;18.40;41.90;;;;;;5107585;28;20526;-54
2021/09/28 05:50:49;;;;;;;19.60;16.40;;;18.50;20.30;;;;;;5093297;28;21000;-54
2021/09/28 05:53:15;;;;;;;20.70;16.70;;;18.50;12.80;;;;;;5108451;28;20192;-54
2021/09/28 05:55:41;;;;;;;19.20;17.20;;;18.50;10.00;;;;;;5120467;27;20202;-55
2021/09/28 05:58:07;;;;;;;18.77;15.83;;;18.60;7.30;;;;;;5110997;28;20181;-54
2021/09/28 06:00:33;;;;;;;19.33;15.83;;;18.50;7.10;;;;;;5112081;27;21003;-54
2021/09/28 06:02:58;;;;;;;23.50;17.37;;;18.40;11.10;;;;;;5111227;27;20219;-54
2021/09/28 06:05:24;;;;;;;18.90;16.90;;;18.50;10.30;;;;;;5107495;28;20276;-54
2021/09/28 06:07:50;;;;;;;19.73;17.40;;;18.60;1.00;;;;;;5110859;28;20205;-54
2021/09/28 06:10:16;;;;;;;20.53;18.10;;;18.60;1.00;;;;;;5106941;28;20200;-54
2021/09/28 06:12:41;;;;;;;24.30;20.10;;;18.60;1.00;;;;;;5109068;28;20451;-54
2021/09/28 06:15:07;;;;;;;20.33;18.23;;;18.60;1.00;;;;;;5111359;28;20177;-55
2021/09/28 06:17:33;;;;;;;22.43;19.07;;;18.60;1.00;;;;;;5111450;28;20210;-56
2021/09/28 06:19:59;;;;;;;21.23;18.97;;;18.70;1.00;;;;;;5107460;28;20433;-54
2021/09/28 06:22:25;;;;;;;23.27;18.90;;;18.70;1.00;;;;;;5111152;28;20190;-54
2021/09/28 06:24:55;;;;;;;21.17;18.73;;;18.50;1.00;;;;;;5103432;28;20187;-54
2021/09/28 06:27:22;;;;;;;21.20;19.13;;;18.40;1.00;;;;;;5111099;28;20437;-55
2021/09/28 06:29:47;;;;;;;24.77;20.20;;;18.40;1.00;;;;;;5109185;28;20438;-54
2021/09/28 06:32:13;;;;;;;22.00;19.67;;;18.40;1.00;;;;;;5107755;28;20440;-55
2021/09/28 06:34:39;;;;;;;22.03;19.80;;;18.30;1.00;;;;;;5108205;28;20198;-53
2021/09/28 06:37:05;;;;;;;22.47;19.43;;;18.30;1.00;;;;;;5105862;28;20270;-53
2021/09/28 06:39:31;;;;;;;20.23;18.00;;;18.30;1.00;;;;;;5108390;28;20197;-54
2021/09/28 06:41:56;;;;;;;17.67;15.77;;;18.30;1.00;;;;;;5108795;28;20429;-54
2021/09/28 06:44:22;;;;;;;15.60;14.10;;;18.00;1.00;;;;;;5108411;28;20268;-54
2021/09/28 06:46:47;;;;;;;16.50;14.80;;;18.00;2.40;;;;;;5109271;28;20214;-54
2021/09/28 06:49:13;;;;;;;13.10;11.37;;;18.00;1.00;;;;;;5107247;28;20195;-54
2021/09/28 06:51:38;;;;;;;11.47;10.23;;;17.80;1.00;;;;;;5108161;28;20192;-53
2021/09/28 06:54:04;;;;;;;11.63;10.43;;;17.80;1.00;;;;;;5102325;28;20184;-53
2021/09/28 06:56:29;;;;;;;10.03;9.13;;;17.70;1.00;;;;;;5110700;28;20627;-54
2021/09/28 06:58:55;;;;;;;9.77;8.90;;;17.60;1.00;;;;;;5107527;28;20184;-54
2021/09/28 07:01:21;;;;;;;10.10;9.07;;;17.50;1.00;;;;;;5108159;28;20192;-54
2021/09/28 07:03:46;;;;;;;9.30;8.50;;;17.50;1.00;;;;;;5102581;28;20657;-54
2021/09/28 07:06:12;;;;;;;9.20;7.40;;;17.60;1.00;;;;;;5110906;28;20199;-54
2021/09/28 07:08:38;;;;;;;8.10;7.30;;;17.60;1.00;;;;;;5110346;28;20193;-53
2021/09/28 07:11:03;;;;;;;8.47;7.10;;;17.50;1.00;;;;;;5109389;28;20468;-54
2021/09/28 07:13:29;;;;;;;7.17;6.47;;;17.70;1.00;;;;;;5107918;28;20220;-54
2021/09/28 07:15:54;;;;;;;7.50;6.90;;;17.70;1.00;;;;;;5108784;28;20187;-54
2021/09/28 07:18:20;;;;;;;7.10;6.40;;;17.70;1.00;;;;;;5108253;28;20196;-54
2021/09/28 07:20:45;;;;;;;7.03;5.40;;;17.80;1.00;;;;;;5106924;28;20182;-54
2021/09/28 07:23:11;;;;;;;5.87;5.37;;;17.60;1.00;;;;;;5110203;28;20592;-54
2021/09/28 07:25:36;;;;;;;5.70;5.20;;;17.40;1.00;;;;;;5108289;28;20188;-54
2021/09/28 07:28:02;;;;;;;5.80;4.67;;;17.40;1.00;;;;;;5102054;28;20204;-54
2021/09/28 07:30:31;;;;;;;4.70;4.40;;;17.30;1.00;;;;;;5110402;28;20202;-54
2021/09/28 07:32:59;;;;;;;4.33;4.03;;;17.20;1.00;;;;;;5107502;28;20262;-54
2021/09/28 07:35:25;;;;;;;4.27;3.80;;;17.20;1.00;;;;;;5104164;28;20425;-54
2021/09/28 07:37:51;;;;;;;4.33;3.77;;;17.30;1.00;;;;;;5102939;28;20515;-54
2021/09/28 07:40:17;;;;;;;4.77;3.20;;;17.40;1.00;;;;;;5110353;28;20430;-54
2021/09/28 07:42:44;;;;;;;3.53;3.23;;;17.50;1.00;;;;;;5107481;28;20417;-54
2021/09/28 07:45:10;;;;;;;6.73;3.70;;;17.50;1.00;;;;;;5110882;28;20687;-54
2021/09/28 07:47:35;;;;;;;6.80;3.33;;;17.40;1.00;;;;;;5110363;28;20523;-54
2021/09/28 07:50:01;;;;;;;4.77;3.30;;;17.20;1.00;;;;;;5109952;28;20888;-54
2021/09/28 07:52:27;;;;;;;2.60;2.37;;;17.20;1.00;;;;;;5096854;28;20194;-55
2021/09/28 07:54:52;;;;;;;4.50;3.10;;;17.20;1.00;;;;;;5109082;28;20195;-55
2021/09/28 07:57:18;;;;;;;3.60;2.80;;;17.40;1.00;;;;;;5109545;28;20180;-54
2021/09/28 07:59:44;;;;;;;4.63;2.47;;;17.40;1.00;;;;;;5111130;28;20172;-53
2021/09/28 08:02:09;;;;;;;6.40;2.80;;;17.50;1.00;;;;;;5108029;28;20272;-54
2021/09/28 08:04:37;;;;;;;7.83;3.50;;;17.50;1.00;;;;;;5110339;28;20585;-54
2021/09/28 08:07:02;;;;;;;5.30;3.40;;;17.50;1.00;;;;;;5114350;28;20195;-54
2021/09/28 08:09:28;;;;;;;4.17;3.43;;;17.50;1.00;;;;;;5111331;28;20415;-54
2021/09/28 08:11:55;;;;;;;3.00;2.73;;;17.40;1.00;;;;;;5112608;28;20201;-55
2021/09/28 08:14:21;;;;;;;4.93;3.80;;;17.40;1.00;;;;;;5111471;28;20169;-53
2021/09/28 08:16:46;;;;;;;7.40;3.67;;;17.40;1.00;;;;;;5108886;28;20792;-53
2021/09/28 08:19:12;;;;;;;3.83;3.43;;;17.30;1.00;;;;;;5113714;28;20438;-54
2021/09/28 08:21:37;;;;;;;5.73;3.77;;;17.20;1.00;;;;;;5109586;27;20497;-54
2021/09/28 08:24:03;;;;;;;4.70;3.73;;;17.20;1.00;;;;;;5108074;28;20193;-54
2021/09/28 08:29:10;;;;;;;6.10;4.00;;;17.30;1.00;;;;;;5113368;28;20436;-55
2021/09/28 08:31:43;;;;;;;4.63;4.07;;;17.30;1.00;;;;;;5110221;28;20405;-54
2021/09/28 08:34:11;;;;;;;4.80;4.13;;;17.20;1.00;;;;;;5110858;28;20512;-54
2021/09/28 08:36:37;;;;;;;5.40;3.70;;;17.20;1.00;;;;;;5112297;27;20934;-55
2021/09/28 08:39:05;;;;;;;3.67;3.30;;;17.20;1.00;;;;;;5113977;28;20438;-53
2021/09/28 08:41:31;;;;;;;3.50;3.20;;;17.20;1.00;;;;;;5113453;28;20443;-54
2021/09/28 08:43:59;;;;;;;4.50;3.83;;;17.20;1.00;;;;;;5095285;27;20426;-53
2021/09/28 08:46:25;;;;;;;5.03;4.13;;;17.20;1.00;;;;;;5114421;27;20633;-53
2021/09/28 08:48:51;;;;;;;5.73;3.47;;;17.30;1.00;;;;;;5113418;28;20450;-54
2021/09/28 08:51:17;;;;;;;5.60;3.90;;;17.20;1.00;;;;;;5113330;28;20279;-54
2021/09/28 08:53:43;;;;;;;4.53;4.13;;;17.10;1.00;;;;;;5109956;28;20544;-53
2021/09/28 08:56:11;;;;;;;3.93;3.17;;;17.10;1.00;;;;;;5110435;28;20200;-54
2021/09/28 08:58:59;;;;;;;7.10;3.40;;;17.10;1.00;;;;;;5113816;28;20524;-54
2021/09/28 09:01:27;;;;;;;8.17;3.20;;;17.10;1.00;;;;;;5110356;28;20975;-54
2021/09/28 09:03:53;;;;;;;4.93;2.50;;;17.00;1.00;;;;;;5109224;28;20413;-54
2021/09/28 09:06:19;;;;;;;3.70;3.07;;;17.00;1.00;;;;;;5110869;28;20438;-55
2021/09/28 09:08:48;;;;;;;5.67;3.30;;;16.90;1.00;;;;;;5113634;28;20196;-54
2021/09/28 09:11:16;;;;;;;4.97;3.30;;;16.90;1.00;;;;;;5113450;28;20503;-54
2021/09/28 09:13:49;;;;;;;6.23;3.23;;;16.90;1.00;;;;;;5112521;28;20548;-54
2021/09/28 09:16:16;;;;;;;4.37;3.27;;;16.80;1.00;;;;;;5111780;28;20428;-54
2021/09/28 09:18:46;;;;;;;7.97;3.40;;;16.90;1.00;;;;;;5113674;28;20481;-54
2021/09/28 09:21:14;;;;;;;6.20;3.50;;;17.10;1.00;;;;;;5113596;28;20437;-54
2021/09/28 09:23:44;;;;;;;4.00;3.43;;;17.20;1.00;;;;;;5113529;28;20776;-54
2021/09/28 09:26:20;;;;;;;5.27;3.83;;;17.20;1.00;;;;;;5113759;28;20453;-53
2021/09/28 09:28:54;;;;;;;9.10;4.27;;;17.30;1.00;;;;;;5113340;28;20875;-54
2021/09/28 09:31:36;;;;;;;3.90;3.60;;;17.30;1.00;;;;;;5113248;28;20408;-54
2021/09/28 09:34:11;;;;;;;3.30;3.10;;;17.10;1.00;;;;;;5113402;28;20437;-54
2021/09/28 09:36:37;;;;;;;6.70;3.40;;;17.00;1.00;;;;;;5112282;28;20505;-53
2021/09/28 09:39:06;;;;;;;3.13;2.83;;;17.00;1.00;;;;;;5113391;28;20449;-53
2021/09/28 09:41:33;;;;;;;4.50;3.80;;;17.10;1.00;;;;;;5112930;28;20917;-53
2021/09/28 09:44:08;;;;;;;4.57;3.80;;;17.20;1.00;;;;;;5109016;28;20923;-54
2021/09/28 09:46:46;;;;;;;5.70;3.47;;;17.20;1.00;;;;;;5105389;28;20468;-54
2021/09/28 09:49:14;;;;;;;6.07;3.70;;;17.10;1.00;;;;;;5112320;28;20527;-54
2021/09/28 09:51:46;;;;;;;5.00;3.93;;;16.80;1.00;;;;;;5113070;28;20767;-54
2021/09/28 09:54:12;;;;;;;7.43;3.80;;;16.70;1.00;;;;;;5112910;27;20428;-54
2021/09/28 09:56:49;;;;;;;5.60;3.80;;;16.70;1.00;;;;;;5112377;28;20450;-53
2021/09/28 09:59:22;;;;;;;4.57;4.00;;;16.60;1.00;;;;;;5112621;28;20911;-54
2021/09/28 10:01:50;;;;;;;5.53;4.50;;;16.70;1.00;;;;;;5112736;28;20855;-53
2021/09/28 10:04:18;;;;;;;6.00;4.40;;;16.60;1.00;;;;;;5112379;28;20944;-55
2021/09/28 10:06:45;;;;;;;4.73;3.73;;;16.60;1.00;;;;;;5106855;28;20435;-54
2021/09/28 10:09:27;;;;;;;5.03;4.07;;;16.60;1.00;;;;;;5112525;28;20441;-54
2021/09/28 10:12:00;;;;;;;5.13;4.10;;;16.60;1.00;;;;;;5099948;28;20423;-54
2021/09/28 10:14:35;;;;;;;4.67;4.33;;;16.60;1.00;;;;;;5112380;28;20904;-54
2021/09/28 10:17:01;;;;;;;4.03;3.60;;;16.60;1.00;;;;;;5112555;28;20516;-54
2021/09/28 10:19:27;;;;;;;5.50;4.10;;;16.40;1.00;;;;;;5112554;28;20422;-54
2021/09/28 10:21:54;;;;;;;8.37;4.50;;;16.50;1.00;;;;;;5112140;28;20415;-54
2021/09/28 10:24:29;;;;;;;5.00;4.20;;;16.60;1.00;;;;;;5112148;28;20184;-54
2021/09/28 10:27:01;;;;;;;6.93;4.63;;;16.50;1.00;;;;;;5111992;28;20492;-54
2021/09/28 10:29:44;;;;;;;5.10;4.20;;;16.60;1.00;;;;;;5112112;28;20561;-54
2021/09/28 10:32:22;;;;;;;6.20;4.37;;;16.60;1.00;;;;;;5111621;28;20447;-54
2021/09/28 10:35:09;;;;;;;8.30;4.50;;;16.60;1.00;;;;;;5111987;28;20464;-55
2021/09/28 10:37:48;;;;;;;7.47;4.87;;;16.70;1.00;;;;;;5112286;28;20413;-54
2021/09/28 10:40:14;;;;;;;7.13;4.50;;;16.80;1.00;;;;;;5111129;28;20448;-54
2021/09/28 10:42:53;;;;;;;5.13;3.83;;;16.90;1.00;;;;;;5112148;28;20478;-54
2021/09/28 10:45:39;;;;;;;5.63;4.20;;;16.90;1.00;;;;;;5111992;28;20272;-54
2021/09/28 10:48:11;;;;;;;5.30;4.47;;;17.00;1.00;;;;;;5096710;28;20791;-54
2021/09/28 10:50:37;;;;;;;8.47;4.50;;;17.20;1.00;;;;;;5093851;28;21008;-54
2021/09/28 10:53:08;;;;;;;5.20;4.40;;;17.10;1.00;;;;;;5091173;28;20512;-54
2021/09/28 10:55:41;;;;;;;6.43;4.93;;;17.10;1.00;;;;;;5089642;28;20791;-55
2021/09/28 10:58:12;;;;;;;7.87;4.60;;;17.20;1.00;;;;;;5091143;28;20985;-54
2021/09/28 11:00:40;;;;;;;6.70;5.10;;;17.20;1.00;;;;;;5091008;28;20450;-53
2021/09/28 11:03:08;;;;;;;5.53;5.00;;;17.30;1.00;;;;;;5091015;28;20451;-54
2021/09/28 11:05:36;;;;;;;6.20;5.50;;;17.50;1.00;;;;;;5091315;28;20427;-53
2021/09/28 11:08:03;;;;;;;7.13;5.20;;;17.50;1.00;;;;;;5088329;28;20551;-55
2021/09/28 11:10:30;;;;;;;6.53;5.33;;;17.60;1.00;;;;;;5091375;28;20487;-54
2021/09/28 11:12:56;;;;;;;5.10;4.60;;;17.80;1.00;;;;;;5090904;28;20436;-54
2021/09/28 11:15:24;;;;;;;6.43;5.00;;;17.80;1.00;;;;;;5091037;28;20447;-54
2021/09/28 11:17:51;;;;;;;5.63;5.13;;;17.90;1.00;;;;;;5090832;28;20963;-54
2021/09/28 11:20:21;;;;;;;5.93;4.87;;;18.00;1.00;;;;;;5090845;28;20431;-54
2021/09/28 11:23:19;;;;;;;7.17;4.40;;;18.00;1.00;;;;;;5090977;28;20407;-54
2021/09/28 11:25:53;;;;;;;5.80;5.20;;;18.20;1.00;;;;;;5067726;28;20556;-54
2021/09/28 11:28:21;;;;;;;6.80;4.40;;;18.20;1.00;;;;;;5091079;28;20435;-54
2021/09/28 11:30:57;;;;;;;5.27;4.53;;;18.40;1.00;;;;;;5091361;28;20431;-54
2021/09/28 11:33:23;;;;;;;6.00;4.30;;;18.40;1.00;;;;;;5082323;28;20413;-54
2021/09/28 11:36:04;;;;;;;6.20;4.40;;;18.50;1.00;;;;;;5090747;28;20489;-54
2021/09/28 11:38:50;;;;;;;8.37;5.37;;;18.20;1.00;;;;;;5090917;28;20918;-53
2021/09/28 11:41:20;;;;;;;4.83;4.27;;;18.00;1.00;;;;;;5091741;28;20461;-54
2021/09/28 11:43:51;;;;;;;6.63;5.20;;;17.80;1.00;;;;;;5094747;28;20461;-55
2021/09/28 11:46:18;;;;;;;6.03;5.43;;;17.70;1.00;;;;;;5094806;28;20434;-53
2021/09/28 11:48:54;;;;;;;7.40;4.90;;;17.70;1.00;;;;;;5094344;28;20530;-54
2021/09/28 11:51:24;;;;;;;5.20;4.70;;;17.60;1.00;;;;;;5111046;28;20462;-54
2021/09/28 11:53:51;;;;;;;5.80;4.90;;;17.70;1.00;;;;;;5115014;28;20423;-53
2021/09/28 11:56:20;;;;;;;4.83;4.20;;;17.70;1.00;;;;;;5115224;28;20415;-54
2021/09/28 11:58:48;;;;;;;5.70;5.07;;;17.80;1.00;;;;;;5114064;28;20449;-55
2021/09/28 12:01:16;;;;;;;5.50;4.20;;;17.90;1.00;;;;;;5104484;28;20959;-54
2021/09/28 12:04:08;;;;;;;6.07;4.77;;;18.00;1.00;;;;;;5114957;28;20463;-54
2021/09/28 12:07:00;;;;;;;6.23;4.20;;;18.20;1.00;;;;;;5109635;28;20414;-55
2021/09/28 12:09:34;;;;;;;4.40;4.10;;;18.40;1.00;;;;;;5100594;28;20879;-54
2021/09/28 12:12:14;;;;;;;5.03;4.63;;;18.40;1.00;;;;;;5101432;28;20406;-54
2021/09/28 12:14:52;;;;;;;4.10;3.50;;;18.60;1.00;;;;;;5113769;28;20435;-53
2021/09/28 12:17:20;;;;;;;4.83;3.83;;;18.80;1.00;;;;;;5110294;28;20928;-54
2021/09/28 12:20:00;;;;;;;5.67;3.60;;;18.80;1.00;;;;;;5114782;28;20430;-53
2021/09/28 12:22:47;;;;;;;4.40;4.00;;;19.00;1.00;;;;;;5114381;28;20550;-55
2021/09/28 12:25:19;;;;;;;5.77;2.70;;;18.90;1.00;;;;;;5110862;28;20510;-54
2021/09/28 12:28:09;;;;;;;4.20;3.40;;;18.70;1.00;;;;;;5111338;28;20444;-54
2021/09/28 12:31:02;;;;;;;5.70;3.77;;;18.60;1.00;;;;;;5114753;28;20459;-54
2021/09/28 12:33:28;;;;;;;4.73;3.53;;;18.30;1.00;;;;;;5111143;28;20468;-54
2021/09/28 12:35:58;;;;;;;5.03;3.43;;;18.00;1.00;;;;;;5114529;28;20438;-54
2021/09/28 12:38:25;;;;;;;4.87;2.80;;;18.00;1.00;;;;;;5099812;28;20224;-54
2021/09/28 12:40:51;;;;;;;4.60;2.80;;;18.10;1.00;;;;;;5114256;28;20496;-54
2021/09/28 12:43:25;;;;;;;2.90;2.70;;;18.30;1.00;;;;;;5114400;28;20417;-54
2021/09/28 12:46:00;;;;;;;4.50;2.83;;;18.40;1.00;;;;;;5114444;28;20421;-54
2021/09/28 12:48:43;;;;;;;2.97;2.50;;;18.40;1.00;;;;;;5111161;28;20517;-54